createdAt,value
2019-05-22T00:01:48.106Z,89.02
2019-05-22T00:04:18.159Z,89.30
2019-05-22T00:06:48.036Z,89.50
2019-05-22T00:09:24.291Z,88.85
2019-05-22T00:11:53.547Z,88.68
2019-05-22T00:14:24.071Z,88.52
2019-05-22T00:16:54.243Z,88.91
2019-05-22T00:19:24.228Z,88.49
2019-05-22T00:21:54.343Z,88.60
2019-05-22T00:24:25.299Z,88.19
2019-05-22T00:26:55.556Z,87.90
2019-05-22T00:29:25.302Z,88.55
2019-05-22T00:31:54.726Z,88.42
2019-05-22T00:34:23.980Z,88.73
2019-05-22T00:36:52.656Z,89.24
2019-05-22T00:39:22.285Z,88.38
2019-05-22T00:41:51.670Z,89.22
2019-05-22T00:44:21.203Z,89.95
2019-05-22T00:46:50.420Z,89.72
2019-05-22T00:49:20.484Z,90.58
2019-05-22T00:51:54.774Z,89.97
2019-05-22T00:54:26.081Z,90.43
2019-05-22T00:56:56.290Z,91.02
2019-05-22T00:59:42.735Z,90.46
2019-05-22T01:02:14.230Z,89.80
2019-05-22T01:04:43.302Z,90.51
2019-05-22T01:07:20.563Z,90.21
2019-05-22T01:09:51.763Z,90.33
2019-05-22T01:12:29.628Z,90.74
2019-05-22T01:15:05.001Z,89.91
2019-05-22T01:17:36.463Z,90.18
2019-05-22T01:20:09.517Z,91.36
2019-05-22T01:22:39.370Z,91.96
2019-05-22T01:25:10.462Z,91.59
2019-05-22T01:27:41.452Z,91.35
2019-05-22T01:30:12.157Z,90.62
2019-05-22T01:32:45.029Z,90.36
2019-05-22T01:35:14.014Z,90.04
2019-05-22T01:37:44.274Z,90.85
2019-05-22T01:40:33.341Z,91.14
2019-05-22T01:43:03.513Z,90.91
2019-05-22T01:45:33.509Z,90.87
2019-05-22T01:48:06.235Z,90.32
2019-05-22T01:50:44.344Z,90.38
2019-05-22T01:53:16.032Z,90.73
2019-05-22T01:55:45.688Z,91.47
2019-05-22T01:58:15.615Z,91.53
2019-05-22T02:00:44.193Z,91.93
2019-05-22T02:03:14.228Z,92.41
2019-05-22T02:05:43.124Z,92.33
2019-05-22T02:08:11.660Z,91.98
2019-05-22T02:10:42.117Z,92.24
2019-05-22T02:13:14.108Z,93.06
2019-05-22T02:15:43.449Z,93.46
2019-05-22T02:18:17.677Z,93.07
2019-05-22T02:20:46.354Z,92.56
2019-05-22T02:23:15.006Z,92.53
2019-05-22T02:25:43.477Z,92.53
2019-05-22T02:28:12.469Z,92.14
2019-05-22T02:30:43.074Z,91.69
2019-05-22T02:33:13.901Z,91.80
2019-05-22T02:35:42.445Z,92.15
2019-05-22T02:38:12.182Z,92.24
2019-05-22T02:40:43.691Z,92.15
2019-05-22T02:43:12.714Z,91.90
2019-05-22T02:45:41.329Z,91.43
2019-05-22T02:48:11.083Z,90.54
2019-05-22T02:50:39.860Z,90.50
2019-05-22T02:53:11.593Z,90.73
2019-05-22T02:55:40.460Z,91.33
2019-05-22T02:58:10.562Z,91.35
2019-05-22T03:00:44.795Z,91.25
2019-05-22T03:03:13.781Z,90.25
2019-05-22T03:05:42.422Z,90.20
2019-05-22T03:08:10.891Z,89.92
2019-05-22T03:10:39.254Z,89.95
2019-05-22T03:13:08.659Z,90.37
2019-05-22T03:15:37.055Z,90.41
2019-05-22T03:18:08.506Z,90.42
2019-05-22T03:20:40.200Z,90.18
2019-05-22T03:23:32.813Z,89.71
2019-05-22T03:26:01.892Z,89.48
2019-05-22T03:28:31.259Z,88.63
2019-05-22T03:31:00.375Z,88.38
2019-05-22T03:33:29.324Z,88.44
2019-05-22T03:36:09.640Z,89.28
2019-05-22T03:38:40.168Z,90.06
2019-05-22T03:41:10.870Z,89.56
2019-05-22T03:43:41.092Z,90.15
2019-05-22T03:46:33.176Z,89.82
2019-05-22T03:49:01.825Z,89.99
2019-05-22T03:51:31.241Z,90.25
2019-05-22T03:54:00.325Z,90.55
2019-05-22T03:56:30.250Z,89.54
2019-05-22T03:58:59.344Z,89.25
2019-05-22T04:01:29.017Z,89.74
2019-05-22T04:03:59.079Z,89.87
2019-05-22T04:06:27.541Z,90.62
2019-05-22T04:08:57.991Z,90.11
2019-05-22T04:11:30.018Z,89.92
2019-05-22T04:13:58.710Z,90.17
2019-05-22T04:16:27.584Z,90.31
2019-05-22T04:18:57.743Z,90.39
2019-05-22T04:21:26.210Z,89.66
2019-05-22T04:23:54.798Z,89.99
2019-05-22T04:26:24.420Z,90.09
2019-05-22T04:28:55.650Z,89.78
2019-05-22T04:31:33.040Z,89.78
2019-05-22T04:34:01.522Z,89.41
2019-05-22T04:36:29.939Z,88.76
2019-05-22T04:39:00.576Z,88.94
2019-05-22T04:41:30.051Z,89.51
2019-05-22T04:43:58.461Z,89.53
2019-05-22T04:46:27.142Z,88.72
2019-05-22T04:48:55.560Z,88.37
2019-05-22T04:51:26.979Z,88.49
2019-05-22T04:53:56.268Z,88.63
2019-05-22T04:56:25.854Z,89.18
2019-05-22T04:58:54.653Z,89.04
2019-05-22T05:01:23.774Z,89.19
2019-05-22T05:03:52.258Z,88.74
2019-05-22T05:06:22.331Z,88.73
2019-05-22T05:08:51.176Z,88.65
2019-05-22T05:11:20.531Z,89.33
2019-05-22T05:13:49.012Z,90.09
2019-05-22T05:16:18.178Z,89.97
2019-05-22T05:18:46.586Z,90.19
2019-05-22T05:21:15.072Z,90.24
2019-05-22T05:23:43.885Z,90.56
2019-05-22T05:26:12.301Z,90.11
2019-05-22T05:28:41.243Z,89.71
2019-05-22T05:31:11.450Z,90.47
2019-05-22T05:34:09.631Z,90.83
2019-05-22T05:36:38.379Z,90.50
2019-05-22T05:39:10.514Z,89.99
2019-05-22T05:41:38.917Z,90.48
2019-05-22T05:44:07.699Z,91.03
2019-05-22T05:46:36.288Z,90.61
2019-05-22T05:49:05.129Z,89.60
2019-05-22T05:51:36.328Z,88.50
2019-05-22T05:54:09.542Z,88.88
2019-05-22T05:56:40.779Z,89.96
2019-05-22T05:59:10.453Z,90.69
2019-05-22T06:01:46.291Z,91.52
2019-05-22T06:04:33.393Z,91.41
2019-05-22T06:07:00.270Z,90.69
2019-05-22T06:09:28.226Z,90.19
2019-05-22T06:11:59.321Z,89.67
2019-05-22T06:14:33.676Z,89.77
2019-05-22T06:17:23.488Z,90.64
2019-05-22T06:19:59.037Z,90.76
2019-05-22T06:22:29.111Z,90.30
2019-05-22T06:25:01.487Z,89.91
2019-05-22T06:27:42.848Z,90.54
2019-05-22T06:30:21.486Z,91.39
2019-05-22T06:33:08.637Z,91.74
2019-05-22T06:35:38.578Z,90.95
2019-05-22T06:38:27.959Z,90.86
2019-05-22T06:40:56.995Z,91.20
2019-05-22T06:43:30.119Z,91.56
2019-05-22T06:45:58.610Z,91.65
2019-05-22T06:48:27.418Z,92.09
2019-05-22T06:50:57.007Z,92.31
2019-05-22T06:53:26.290Z,91.71
2019-05-22T06:55:54.783Z,92.04
2019-05-22T06:58:23.365Z,92.14
2019-05-22T07:00:52.009Z,92.88
2019-05-22T07:03:20.599Z,92.16
2019-05-22T07:05:50.225Z,92.18
2019-05-22T07:08:19.586Z,92.30
2019-05-22T07:10:48.866Z,91.59
2019-05-22T07:13:18.125Z,91.78
2019-05-22T07:15:50.099Z,92.36
2019-05-22T07:18:19.923Z,91.75
2019-05-22T07:20:49.437Z,91.47
2019-05-22T07:23:20.684Z,91.88
2019-05-22T07:25:49.835Z,91.42
2019-05-22T07:28:20.064Z,92.05
2019-05-22T07:30:49.295Z,91.46
2019-05-22T07:33:19.689Z,90.81
2019-05-22T07:36:07.965Z,91.35
2019-05-22T07:38:19.986Z,90.63
2019-05-22T07:40:50.530Z,89.90
2019-05-22T07:43:19.779Z,90.72
2019-05-22T07:45:48.254Z,90.27
2019-05-22T07:48:17.990Z,88.96
2019-05-22T07:50:48.681Z,88.90
2019-05-22T07:53:17.524Z,88.60
2019-05-22T07:55:46.640Z,88.18
2019-05-22T07:58:16.709Z,88.39
2019-05-22T08:00:49.008Z,87.75
2019-05-22T08:03:17.585Z,87.15
2019-05-22T08:05:51.746Z,87.25
2019-05-22T08:08:22.355Z,86.41
2019-05-22T08:10:51.935Z,86.90
2019-05-22T08:13:20.865Z,88.27
2019-05-22T08:15:49.270Z,87.46
2019-05-22T08:18:18.051Z,88.17
2019-05-22T08:20:46.531Z,87.57
2019-05-22T08:23:15.810Z,87.95
2019-05-22T08:25:44.224Z,88.30
2019-05-22T08:28:13.579Z,88.85
2019-05-22T08:30:42.187Z,89.65
2019-05-22T08:33:14.115Z,89.21
2019-05-22T08:35:42.865Z,88.50
2019-05-22T08:38:12.330Z,88.25
2019-05-22T08:40:41.024Z,88.06
2019-05-22T08:43:10.329Z,87.33
2019-05-22T08:45:38.818Z,87.21
2019-05-22T08:48:07.767Z,87.75
2019-05-22T08:50:37.544Z,87.17
2019-05-22T08:53:06.986Z,87.27
2019-05-22T08:55:36.138Z,87.34
2019-05-22T08:58:05.814Z,87.79
2019-05-22T09:00:34.724Z,87.45
2019-05-22T09:03:03.182Z,87.18
2019-05-22T09:05:32.289Z,87.07
2019-05-22T09:08:00.768Z,87.46
2019-05-22T09:10:29.625Z,87.39
2019-05-22T09:12:58.025Z,87.37
2019-05-22T09:15:26.518Z,86.89
2019-05-22T09:17:55.062Z,86.30
2019-05-22T09:20:23.906Z,86.25
2019-05-22T09:22:52.912Z,85.96
2019-05-22T09:25:21.591Z,85.41
2019-05-22T09:27:50.441Z,85.82
2019-05-22T09:30:20.445Z,85.63
2019-05-22T09:32:48.848Z,86.55
2019-05-22T09:35:17.411Z,86.11
2019-05-22T09:37:45.899Z,85.15
2019-05-22T09:40:14.831Z,84.06
2019-05-22T09:42:43.415Z,83.79
2019-05-22T09:45:12.331Z,84.15
2019-05-22T09:47:40.994Z,83.99
2019-05-22T09:50:11.017Z,83.29
2019-05-22T09:52:56.336Z,82.87
2019-05-22T09:55:14.229Z,82.43
2019-05-22T09:57:42.659Z,82.84
2019-05-22T10:00:13.070Z,82.09
2019-05-22T10:02:42.065Z,82.19
2019-05-22T10:05:11.174Z,82.20
2019-05-22T10:07:57.190Z,81.03
2019-05-22T10:10:11.668Z,79.47
2019-05-22T10:12:40.078Z,79.41
2019-05-22T10:15:10.696Z,79.16
2019-05-22T10:17:42.316Z,78.31
2019-05-22T10:20:12.441Z,77.08
2019-05-22T10:22:40.839Z,75.33
2019-05-22T10:25:16.641Z,74.42
2019-05-22T10:27:41.052Z,73.27
2019-05-22T10:30:13.837Z,73.67
2019-05-22T10:32:42.249Z,72.72
2019-05-22T10:35:12.254Z,74.32
2019-05-22T10:37:41.704Z,72.37
2019-05-22T10:40:11.563Z,72.52
2019-05-22T10:42:44.370Z,72.53
2019-05-22T10:45:10.996Z,72.63
2019-05-22T10:47:39.706Z,71.46
2019-05-22T10:50:08.529Z,70.67
2019-05-22T10:52:37.284Z,70.11
2019-05-22T10:55:07.866Z,69.87
2019-05-22T10:57:40.441Z,69.76
2019-05-22T11:00:12.899Z,70.68
2019-05-22T11:02:41.752Z,70.74
2019-05-22T11:05:10.383Z,71.50
2019-05-22T11:07:39.005Z,71.71
2019-05-22T11:10:08.499Z,68.80
2019-05-22T11:12:37.341Z,68.43
2019-05-22T11:15:08.525Z,66.67
2019-05-22T11:17:38.045Z,66.46
2019-05-22T11:20:12.155Z,65.50
2019-05-22T11:22:40.570Z,66.88
2019-05-22T11:25:11.083Z,66.49
2019-05-22T11:27:40.329Z,66.80
2019-05-22T11:30:11.372Z,66.56
2019-05-22T11:32:40.250Z,65.42
2019-05-22T11:35:10.171Z,66.73
2019-05-22T11:37:39.349Z,64.93
2019-05-22T11:40:09.047Z,62.96
2019-05-22T11:42:38.601Z,60.69
2019-05-22T11:45:11.712Z,59.33
2019-05-22T11:47:40.955Z,59.68
2019-05-22T11:50:11.996Z,59.94
2019-05-22T11:52:40.984Z,60.53
2019-05-22T11:55:10.918Z,59.49
2019-05-22T11:57:41.302Z,60.38
2019-05-22T12:00:10.643Z,59.31
2019-05-22T12:02:39.460Z,59.96
2019-05-22T12:05:10.354Z,59.50
2019-05-22T12:07:43.344Z,57.90
2019-05-22T12:10:13.918Z,56.98
2019-05-22T12:12:42.471Z,57.69
2019-05-22T12:15:12.386Z,59.72
2019-05-22T12:17:41.496Z,59.18
2019-05-22T12:20:12.358Z,59.51
2019-05-22T12:22:41.395Z,58.78
2019-05-22T12:25:12.222Z,56.92
2019-05-22T12:27:40.696Z,59.14
2019-05-22T12:30:11.427Z,58.55
2019-05-22T12:32:40.687Z,58.01
2019-05-22T12:35:11.696Z,58.43
2019-05-22T12:37:41.546Z,58.08
2019-05-22T12:40:13.170Z,57.25
2019-05-22T12:42:41.786Z,57.53
2019-05-22T12:45:12.792Z,57.22
2019-05-22T12:47:43.012Z,57.94
2019-05-22T12:50:14.885Z,59.85
2019-05-22T12:52:46.344Z,59.23
2019-05-22T12:55:15.583Z,58.96
2019-05-22T12:57:44.177Z,58.39
2019-05-22T13:00:12.993Z,57.46
2019-05-22T13:02:42.673Z,57.77
2019-05-22T13:05:14.525Z,56.59
2019-05-22T13:07:41.915Z,56.78
2019-05-22T13:10:10.765Z,57.02
2019-05-22T13:12:39.244Z,56.72
2019-05-22T13:15:10.617Z,57.38
2019-05-22T13:17:39.199Z,55.41
2019-05-22T13:20:08.099Z,55.68
2019-05-22T13:22:38.018Z,53.50
2019-05-22T13:25:09.396Z,54.86
2019-05-22T13:27:39.448Z,53.43
2019-05-22T13:30:10.964Z,55.80
2019-05-22T13:32:42.154Z,53.99
2019-05-22T13:35:12.664Z,53.69
2019-05-22T13:37:41.316Z,54.66
2019-05-22T13:40:26.678Z,53.47
2019-05-22T13:42:41.193Z,56.82
2019-05-22T13:45:27.858Z,53.63
2019-05-22T13:47:43.060Z,51.27
2019-05-22T13:50:13.905Z,52.11
2019-05-22T13:52:43.932Z,51.93
2019-05-22T13:55:12.563Z,53.08
2019-05-22T13:57:41.245Z,52.42
2019-05-22T14:00:12.762Z,52.41
2019-05-22T14:02:41.237Z,52.16
2019-05-22T14:05:13.653Z,52.87
2019-05-22T14:07:40.733Z,53.72
2019-05-22T14:10:09.639Z,54.85
2019-05-22T14:12:38.596Z,55.22
2019-05-22T14:15:08.282Z,54.57
2019-05-22T14:17:37.364Z,53.94
2019-05-22T14:20:06.620Z,53.50
2019-05-22T14:22:35.096Z,52.80
2019-05-22T14:25:04.937Z,54.42
2019-05-22T14:27:33.400Z,54.49
2019-05-22T14:30:02.054Z,54.74
2019-05-22T14:32:30.724Z,55.21
2019-05-22T14:34:59.309Z,51.13
2019-05-22T14:37:28.044Z,51.22
2019-05-22T14:39:56.531Z,50.73
2019-05-22T14:42:25.665Z,50.63
2019-05-22T14:44:54.141Z,52.26
2019-05-22T14:47:22.697Z,50.13
2019-05-22T14:49:51.154Z,49.92
2019-05-22T14:52:20.034Z,51.41
2019-05-22T14:54:49.377Z,50.53
2019-05-22T14:57:17.843Z,51.63
2019-05-22T14:59:46.516Z,51.60
2019-05-22T15:02:15.350Z,52.74
2019-05-22T15:04:44.209Z,52.90
2019-05-22T15:07:12.729Z,53.10
2019-05-22T15:09:41.421Z,52.83
2019-05-22T15:12:10.172Z,52.82
2019-05-22T15:14:38.663Z,50.26
2019-05-22T15:17:07.382Z,51.13
2019-05-22T15:19:36.389Z,51.04
2019-05-22T15:22:07.332Z,49.20
2019-05-22T15:24:35.743Z,49.72
2019-05-22T15:27:05.477Z,50.02
2019-05-22T15:29:33.953Z,50.38
2019-05-22T15:32:02.622Z,51.56
2019-05-22T15:34:32.905Z,49.64
2019-05-22T15:37:01.759Z,50.52
2019-05-22T15:39:32.771Z,49.49
2019-05-22T15:42:04.579Z,49.33
2019-05-22T15:44:33.519Z,49.97
2019-05-22T15:47:01.918Z,50.80
2019-05-22T15:49:31.537Z,52.38
2019-05-22T15:52:00.857Z,49.21
2019-05-22T15:54:30.704Z,47.45
2019-05-22T15:57:01.289Z,46.76
2019-05-22T15:59:30.038Z,48.27
2019-05-22T16:01:59.914Z,45.99
2019-05-22T16:04:29.261Z,47.17
2019-05-22T16:06:58.824Z,47.82
2019-05-22T16:09:28.174Z,50.05
2019-05-22T16:11:56.942Z,47.84
2019-05-22T16:14:27.603Z,44.75
2019-05-22T16:16:57.893Z,46.82
2019-05-22T16:19:28.205Z,48.29
2019-05-22T16:21:59.709Z,47.56
2019-05-22T16:24:28.720Z,45.70
2019-05-22T16:26:57.188Z,45.31
2019-05-22T16:29:26.132Z,46.34
2019-05-22T16:31:56.199Z,45.54
2019-05-22T16:34:28.177Z,46.56
2019-05-22T16:36:55.303Z,47.73
2019-05-22T16:39:23.877Z,46.17
2019-05-22T16:41:53.319Z,47.50
2019-05-22T16:44:22.075Z,47.92
2019-05-22T16:46:51.239Z,47.83
2019-05-22T16:49:19.726Z,47.17
2019-05-22T16:51:48.635Z,46.55
2019-05-22T16:54:20.768Z,47.52
2019-05-22T16:56:48.000Z,47.37
2019-05-22T16:59:17.968Z,46.90
2019-05-22T17:01:58.704Z,48.28
2019-05-22T17:04:16.728Z,48.44
2019-05-22T17:06:45.990Z,48.38
2019-05-22T17:09:16.409Z,48.36
2019-05-22T17:11:45.972Z,48.29
2019-05-22T17:14:15.569Z,48.50
2019-05-22T17:16:44.612Z,48.28
2019-05-22T17:19:26.369Z,48.65
2019-05-22T17:21:44.554Z,48.12
2019-05-22T17:24:14.969Z,49.87
2019-05-22T17:26:43.594Z,49.78
2019-05-22T17:29:12.560Z,49.73
2019-05-22T17:31:41.120Z,50.47
2019-05-22T17:34:11.158Z,51.29
2019-05-22T17:36:40.308Z,51.67
2019-05-22T17:39:09.804Z,51.60
2019-05-22T17:41:41.279Z,51.61
2019-05-22T17:44:12.118Z,51.94
2019-05-22T17:46:44.449Z,53.19
2019-05-22T17:49:13.857Z,53.25
2019-05-22T17:51:43.574Z,53.86
2019-05-22T17:54:12.208Z,54.20
2019-05-22T17:56:41.153Z,54.83
2019-05-22T17:59:09.583Z,54.45
2019-05-22T18:01:38.408Z,54.59
2019-05-22T18:04:06.796Z,55.58
2019-05-22T18:06:35.355Z,55.75
2019-05-22T18:09:04.761Z,56.25
2019-05-22T18:11:33.346Z,57.01
2019-05-22T18:14:03.364Z,57.05
2019-05-22T18:16:32.520Z,57.05
2019-05-22T18:19:01.098Z,56.57
2019-05-22T18:21:29.846Z,56.75
2019-05-22T18:23:58.478Z,57.43
2019-05-22T18:26:27.576Z,57.06
2019-05-22T18:28:56.268Z,57.15
2019-05-22T18:31:24.881Z,57.20
2019-05-22T18:33:53.298Z,56.96
2019-05-22T18:36:21.710Z,56.86
2019-05-22T18:38:50.111Z,57.57
2019-05-22T18:41:18.586Z,57.70
2019-05-22T18:43:47.053Z,57.66
2019-05-22T18:46:15.464Z,57.97
2019-05-22T18:48:44.028Z,58.04
2019-05-22T18:51:12.779Z,58.24
2019-05-22T18:53:41.191Z,57.91
2019-05-22T18:56:11.061Z,58.13
2019-05-22T18:58:39.959Z,57.78
2019-05-22T19:01:08.617Z,58.31
2019-05-22T19:03:37.367Z,58.36
2019-05-22T19:06:05.913Z,59.08
2019-05-22T19:08:34.388Z,58.98
2019-05-22T19:11:02.800Z,58.77
2019-05-22T19:13:31.192Z,58.88
2019-05-22T19:15:59.683Z,59.13
2019-05-22T19:18:28.253Z,59.30
2019-05-22T19:20:56.767Z,59.17
2019-05-22T19:23:25.373Z,59.71
2019-05-22T19:25:53.789Z,59.54
2019-05-22T19:28:22.571Z,59.60
2019-05-22T19:30:50.987Z,59.80
2019-05-22T19:33:19.447Z,60.10
2019-05-22T19:35:48.214Z,60.50
2019-05-22T19:38:16.712Z,61.21
2019-05-22T19:40:47.766Z,61.46
2019-05-22T19:43:16.606Z,61.33
2019-05-22T19:45:45.008Z,61.32
2019-05-22T19:48:14.335Z,61.71
2019-05-22T19:50:44.002Z,61.81
2019-05-22T19:53:18.693Z,62.08
2019-05-22T19:55:44.150Z,62.23
2019-05-22T19:58:12.808Z,62.18
2019-05-22T20:00:41.375Z,62.24
2019-05-22T20:03:09.784Z,63.00
2019-05-22T20:05:38.349Z,63.10
2019-05-22T20:08:07.708Z,63.10
2019-05-22T20:10:36.270Z,63.69
2019-05-22T20:13:06.321Z,64.89
2019-05-22T20:15:34.804Z,65.13
2019-05-22T20:18:03.206Z,65.41
2019-05-22T20:20:31.668Z,65.21
2019-05-22T20:23:00.660Z,65.21
2019-05-22T20:25:29.445Z,65.15
2019-05-22T20:27:59.390Z,65.46
2019-05-22T20:30:28.046Z,66.09
2019-05-22T20:32:57.468Z,66.04
2019-05-22T20:35:26.782Z,66.20
2019-05-22T20:37:55.324Z,66.74
2019-05-22T20:40:24.963Z,66.93
2019-05-22T20:42:53.843Z,67.14
2019-05-22T20:45:24.833Z,66.79
2019-05-22T20:48:07.906Z,67.51
2019-05-22T20:50:37.136Z,67.45
2019-05-22T20:53:07.256Z,67.79
2019-05-22T20:55:36.997Z,67.89
2019-05-22T20:58:08.176Z,67.59
2019-05-22T21:00:36.767Z,68.98
2019-05-22T21:03:06.113Z,68.63
2019-05-22T21:05:36.042Z,68.37
2019-05-22T21:08:12.247Z,68.54
2019-05-22T21:10:43.720Z,68.37
2019-05-22T21:13:14.058Z,68.34
2019-05-22T21:15:42.440Z,68.68
2019-05-22T21:18:12.562Z,68.81
2019-05-22T21:20:54.155Z,68.75
2019-05-22T21:23:13.134Z,69.05
2019-05-22T21:25:41.540Z,69.00
2019-05-22T21:28:09.946Z,69.52
2019-05-22T21:30:38.596Z,69.95
2019-05-22T21:33:08.215Z,69.84
2019-05-22T21:35:37.256Z,69.90
2019-05-22T21:38:06.112Z,70.41
2019-05-22T21:40:34.662Z,70.38
2019-05-22T21:43:03.909Z,70.61
2019-05-22T21:45:33.275Z,70.84
2019-05-22T21:48:02.054Z,71.38
2019-05-22T21:50:31.116Z,71.33
2019-05-22T21:53:00.261Z,72.01
2019-05-22T21:55:28.906Z,72.10
2019-05-22T21:57:57.331Z,72.19
2019-05-22T22:00:42.240Z,72.78
2019-05-22T22:03:21.832Z,73.07
2019-05-22T22:05:50.247Z,72.93
2019-05-22T22:08:18.647Z,72.96
2019-05-22T22:10:47.856Z,72.91
2019-05-22T22:13:17.235Z,72.59
2019-05-22T22:15:46.027Z,73.00
2019-05-22T22:18:15.638Z,73.29
2019-05-22T22:20:44.224Z,73.29
2019-05-22T22:23:15.124Z,73.09
2019-05-22T22:25:44.010Z,73.05
2019-05-22T22:28:15.522Z,72.61
2019-05-22T22:30:46.013Z,72.75
2019-05-22T22:33:16.528Z,72.70
2019-05-22T22:35:44.935Z,72.43
2019-05-22T22:38:13.695Z,72.69
2019-05-22T22:40:43.277Z,72.12
2019-05-22T22:43:12.508Z,72.24
2019-05-22T22:45:47.410Z,72.29
2019-05-22T22:48:18.078Z,73.62
2019-05-22T22:50:47.068Z,73.25
2019-05-22T22:53:15.851Z,74.00
2019-05-22T22:55:44.921Z,75.33
2019-05-22T22:58:17.553Z,75.36
2019-05-22T23:00:46.795Z,74.82
2019-05-22T23:03:21.434Z,74.74
2019-05-22T23:05:50.022Z,74.78
2019-05-22T23:08:21.756Z,74.75
2019-05-22T23:10:50.875Z,75.96
2019-05-22T23:13:21.175Z,75.74
2019-05-22T23:15:51.527Z,75.60
2019-05-22T23:18:41.282Z,75.49
2019-05-22T23:21:09.314Z,75.16
2019-05-22T23:23:36.547Z,75.25
2019-05-22T23:26:09.662Z,75.12
2019-05-22T23:28:40.745Z,75.46
2019-05-22T23:31:09.703Z,75.26
2019-05-22T23:33:38.961Z,75.91
2019-05-22T23:36:08.776Z,75.84
2019-05-22T23:38:38.326Z,75.77
2019-05-22T23:41:07.782Z,76.18
2019-05-22T23:43:36.450Z,75.99
2019-05-22T23:46:06.324Z,76.05
2019-05-22T23:48:34.791Z,76.39
2019-05-22T23:51:04.777Z,76.07
2019-05-22T23:53:34.809Z,76.84
2019-05-22T23:56:04.669Z,76.51
2019-05-22T23:58:34.586Z,76.01
